Weather at Sun Valley Airfield

Public forecast

Using degrees Celsius for public forecast. Weather courtesy of forecast.io.

Closest aviation weather report (METAR) to Sun Valley Airfield

Closest report is Lanseria Airport, 5.9 nm (10.9 km) NNE. Retrieved 2021/06/24 17:00 UTC (26 minutes ago):

FALA 241700Z 26004KT 240V340 CAVOK 15/01 Q1024 NOSIG

Closest aviation forecast (TAF) to Sun Valley Airfield

Closest forecast is Lanseria Airport, 5.9 nm (10.9 km) NNE. Retrieved 2021/06/24 12:00 UTC (5 hours ago):

TAF FALA 241000Z 2412/2512 VRB03KT CAVOK TX21/2412Z TN06/2505Z BECMG 2421/2423 27010KT